createdAt,value
2023-01-08T00:00:48.415Z,95894.97
2023-01-08T00:03:15.119Z,95895.28
2023-01-08T00:05:41.672Z,95895.94
2023-01-08T00:08:11.033Z,95895.09
2023-01-08T00:10:38.177Z,95887.22
2023-01-08T00:13:05.594Z,95887.88
2023-01-08T00:15:32.808Z,95887.06
2023-01-08T00:17:59.452Z,95881.69
2023-01-08T00:20:26.172Z,95881.69
2023-01-08T00:22:52.849Z,95880.69
2023-01-08T00:25:19.615Z,95878.53
2023-01-08T00:27:46.429Z,95872.97
2023-01-08T00:30:13.176Z,95875.59
2023-01-08T00:32:39.666Z,95873.28
2023-01-08T00:35:06.392Z,95879.19
2023-01-08T00:37:32.859Z,95881.47
2023-01-08T00:39:59.301Z,95882.75
2023-01-08T00:42:25.763Z,95877.00
2023-01-08T00:44:52.287Z,95884.84
2023-01-08T00:47:18.757Z,95878.81
2023-01-08T00:49:45.209Z,95882.41
2023-01-08T00:52:12.127Z,95874.72
2023-01-08T00:54:38.584Z,95872.09
2023-01-08T00:57:05.022Z,95874.53
2023-01-08T00:59:31.445Z,95872.75
2023-01-08T01:01:58.013Z,95869.94
2023-01-08T01:04:25.967Z,95872.41
2023-01-08T01:06:52.432Z,95868.78
2023-01-08T01:09:18.916Z,95871.75
2023-01-08T01:11:45.329Z,95880.78
2023-01-08T01:14:11.760Z,95883.75
2023-01-08T01:16:40.098Z,95875.06
2023-01-08T01:19:06.602Z,95876.69
2023-01-08T01:21:33.099Z,95874.25
2023-01-08T01:24:00.924Z,95870.19
2023-01-08T01:26:27.867Z,95872.78
2023-01-08T01:28:55.644Z,95874.94
2023-01-08T01:31:22.513Z,95871.31
2023-01-08T01:33:49.852Z,95858.56
2023-01-08T01:36:17.417Z,95867.25
2023-01-08T01:38:44.813Z,95859.69
2023-01-08T01:41:24.847Z,95864.16
2023-01-08T01:43:51.606Z,95859.88
2023-01-08T01:46:28.264Z,95856.47
2023-01-08T01:48:56.814Z,95854.84
2023-01-08T01:51:25.782Z,95855.34
2023-01-08T01:53:52.187Z,95855.34
2023-01-08T01:56:18.623Z,95856.47
2023-01-08T01:58:45.104Z,95851.09
2023-01-08T02:01:12.117Z,95842.44
2023-01-08T02:03:39.599Z,95845.19
2023-01-08T02:06:06.179Z,95842.69
2023-01-08T02:08:35.512Z,95840.53
2023-01-08T02:11:06.851Z,95834.94
2023-01-08T02:13:36.735Z,95832.97
2023-01-08T02:16:06.148Z,95831.31
2023-01-08T02:18:35.341Z,95832.31
2023-01-08T02:21:05.443Z,95831.50
2023-01-08T02:23:53.209Z,95829.72
2023-01-08T02:26:31.131Z,95830.34
2023-01-08T02:29:00.770Z,95815.59
2023-01-08T02:31:28.359Z,95814.63
2023-01-08T02:33:54.852Z,95816.25
2023-01-08T02:36:27.138Z,95808.38
2023-01-08T02:39:00.430Z,95806.38
2023-01-08T02:41:34.003Z,95805.38
2023-01-08T02:44:00.901Z,95802.75
2023-01-08T02:46:30.160Z,95796.56
2023-01-08T02:49:01.685Z,95788.31
2023-01-08T02:51:29.842Z,95789.63
2023-01-08T02:53:59.241Z,95784.00
2023-01-08T02:56:32.086Z,95785.81
2023-01-08T02:58:59.715Z,95779.91
2023-01-08T03:01:27.720Z,95779.13
2023-01-08T03:03:56.871Z,95775.84
2023-01-08T03:06:23.531Z,95776.03
2023-01-08T03:08:51.781Z,95770.97
2023-01-08T03:11:19.536Z,95768.53
2023-01-08T03:13:51.065Z,95758.81
2023-01-08T03:16:20.758Z,95761.91
2023-01-08T03:18:50.743Z,95755.50
2023-01-08T03:21:18.193Z,95751.25
2023-01-08T03:23:45.269Z,95749.63
2023-01-08T03:26:13.912Z,95747.19
2023-01-08T03:28:44.352Z,95744.38
2023-01-08T03:31:11.584Z,95741.09
2023-01-08T03:33:38.578Z,95741.28
2023-01-08T03:36:06.529Z,95737.19
2023-01-08T03:38:35.412Z,95734.91
2023-01-08T03:41:07.290Z,95739.19
2023-01-08T03:43:33.834Z,95742.03
2023-01-08T03:46:02.358Z,95733.38
2023-01-08T03:48:30.396Z,95728.13
2023-01-08T03:50:56.815Z,95728.75
2023-01-08T03:53:23.243Z,95719.63
2023-01-08T03:55:49.688Z,95720.25
2023-01-08T03:58:16.115Z,95713.06
2023-01-08T04:00:42.583Z,95717.66
2023-01-08T04:03:09.610Z,95717.66
2023-01-08T04:05:36.192Z,95720.13
2023-01-08T04:08:02.641Z,95709.81
2023-01-08T04:10:29.097Z,95713.25
2023-01-08T04:12:55.591Z,95713.25
2023-01-08T04:15:22.159Z,95707.19
2023-01-08T04:17:48.576Z,95701.75
2023-01-08T04:20:15.048Z,95712.72
2023-01-08T04:22:41.637Z,95704.84
2023-01-08T04:25:08.306Z,95705.22
2023-01-08T04:27:34.755Z,95710.44
2023-01-08T04:30:01.198Z,95713.91
2023-01-08T04:32:27.693Z,95708.47
2023-01-08T04:34:54.113Z,95708.47
2023-01-08T04:37:20.641Z,95718.97
2023-01-08T04:39:47.215Z,95718.31
2023-01-08T04:42:13.732Z,95706.84
2023-01-08T04:44:40.185Z,95705.22
2023-01-08T04:47:06.636Z,95699.00
2023-01-08T04:49:33.120Z,95698.00
2023-01-08T04:51:59.556Z,95699.97
2023-01-08T04:54:26.043Z,95697.34
2023-01-08T04:56:52.572Z,95706.84
2023-01-08T04:59:19.194Z,95707.28
2023-01-08T05:01:45.781Z,95690.78
2023-01-08T05:04:12.385Z,95699.28
2023-01-08T05:06:38.895Z,95692.03
2023-01-08T05:09:05.337Z,95696.31
2023-01-08T05:11:31.765Z,95698.09
2023-01-08T05:13:58.309Z,95696.47
2023-01-08T05:16:24.776Z,95688.44
2023-01-08T05:18:51.241Z,95691.84
2023-01-08T05:21:17.946Z,95693.31
2023-01-08T05:23:45.605Z,95689.22
2023-01-08T05:26:12.197Z,95685.81
2023-01-08T05:28:38.612Z,95673.66
2023-01-08T05:31:05.269Z,95673.34
2023-01-08T05:33:31.746Z,95677.59
2023-01-08T05:35:58.181Z,95677.59
2023-01-08T05:38:24.613Z,95670.72
2023-01-08T05:40:54.201Z,95674.31
2023-01-08T05:43:20.631Z,95677.59
2023-01-08T05:45:47.082Z,95676.44
2023-01-08T05:48:13.518Z,95669.53
2023-01-08T05:50:39.971Z,95666.91
2023-01-08T05:53:07.575Z,95677.22
2023-01-08T05:55:34.385Z,95676.44
2023-01-08T05:58:04.665Z,95677.22
2023-01-08T06:00:31.439Z,95679.66
2023-01-08T06:02:58.194Z,95677.69
2023-01-08T06:05:24.808Z,95683.75
2023-01-08T06:07:51.251Z,95675.72
2023-01-08T06:10:17.766Z,95673.91
2023-01-08T06:12:44.203Z,95675.34
2023-01-08T06:15:11.948Z,95683.03
2023-01-08T06:17:38.440Z,95693.53
2023-01-08T06:20:05.114Z,95683.03
2023-01-08T06:22:33.478Z,95681.06
2023-01-08T06:25:00.117Z,95680.22
2023-01-08T06:27:26.636Z,95671.91
2023-01-08T06:29:53.091Z,95673.72
2023-01-08T06:32:19.672Z,95675.81
2023-01-08T06:34:46.128Z,95678.25
2023-01-08T06:37:12.703Z,95678.91
2023-01-08T06:39:39.141Z,95682.16
2023-01-08T06:42:05.600Z,95676.09
2023-01-08T06:44:32.060Z,95666.25
2023-01-08T06:46:58.520Z,95669.69
2023-01-08T06:49:24.939Z,95682.44
2023-01-08T06:51:51.419Z,95676.38
2023-01-08T06:54:17.878Z,95675.72
2023-01-08T06:56:53.293Z,95678.81
2023-01-08T06:59:20.727Z,95669.16
2023-01-08T07:01:47.296Z,95669.16
2023-01-08T07:04:13.811Z,95671.75
2023-01-08T07:06:40.260Z,95676.84
2023-01-08T07:09:06.768Z,95673.38
2023-01-08T07:11:33.648Z,95678.63
2023-01-08T07:14:00.143Z,95679.28
2023-01-08T07:16:26.668Z,95673.06
2023-01-08T07:18:53.146Z,95670.88
2023-01-08T07:21:21.075Z,95671.69
2023-01-08T07:23:48.570Z,95672.50
2023-01-08T07:26:15.017Z,95670.53
2023-01-08T07:28:42.056Z,95673.78
2023-01-08T07:31:08.843Z,95669.16
2023-01-08T07:33:35.621Z,95668.19
2023-01-08T07:36:02.111Z,95663.38
2023-01-08T07:38:28.757Z,95668.63
2023-01-08T07:40:57.134Z,95663.66
2023-01-08T07:43:23.738Z,95670.72
2023-01-08T07:45:50.191Z,95663.66
2023-01-08T07:48:16.701Z,95665.28
2023-01-08T07:50:43.999Z,95667.91
2023-01-08T07:53:11.491Z,95663.28
2023-01-08T07:55:37.918Z,95658.69
2023-01-08T07:58:08.883Z,95663.56
2023-01-08T08:00:35.778Z,95649.88
2023-01-08T08:03:03.329Z,95659.03
2023-01-08T08:05:29.916Z,95651.63
2023-01-08T08:07:56.422Z,95651.63
2023-01-08T08:10:22.846Z,95644.00
2023-01-08T08:12:49.310Z,95641.66
2023-01-08T08:15:15.805Z,95642.94
2023-01-08T08:17:48.897Z,95638.91
2023-01-08T08:20:15.756Z,95630.84
2023-01-08T08:22:42.218Z,95633.59
2023-01-08T08:25:08.784Z,95623.34
2023-01-08T08:27:35.219Z,95623.16
2023-01-08T08:30:01.713Z,95623.34
2023-01-08T08:32:28.151Z,95630.22
2023-01-08T08:34:54.581Z,95623.41
2023-01-08T08:37:21.074Z,95622.22
2023-01-08T08:39:47.601Z,95613.34
2023-01-08T08:42:14.038Z,95615.78
2023-01-08T08:44:42.731Z,95619.66
2023-01-08T08:47:09.670Z,95618.13
2023-01-08T08:49:39.976Z,95613.50
2023-01-08T08:52:06.432Z,95617.91
2023-01-08T08:54:32.928Z,95620.00
2023-01-08T08:56:59.369Z,95612.19
2023-01-08T08:59:26.083Z,95614.81
2023-01-08T09:01:52.594Z,95600.47
2023-01-08T09:04:19.072Z,95611.19
2023-01-08T09:06:45.511Z,95600.47
2023-01-08T09:09:12.158Z,95594.25
2023-01-08T09:11:38.623Z,95600.13
2023-01-08T09:14:05.102Z,95588.22
2023-01-08T09:16:33.127Z,95583.22
2023-01-08T09:18:59.657Z,95588.09
2023-01-08T09:21:26.196Z,95583.03
2023-01-08T09:23:52.711Z,95581.84
2023-01-08T09:26:19.221Z,95587.34
2023-01-08T09:28:45.932Z,95584.16
2023-01-08T09:31:12.438Z,95575.88
2023-01-08T09:33:38.951Z,95572.06
2023-01-08T09:36:08.645Z,95573.69
2023-01-08T09:38:35.162Z,95569.06
2023-01-08T09:41:04.455Z,95566.66
2023-01-08T09:43:32.173Z,95560.03
2023-01-08T09:46:00.804Z,95555.59
2023-01-08T09:48:29.885Z,95553.56
2023-01-08T09:50:57.245Z,95548.94
2023-01-08T09:53:24.561Z,95550.03
2023-01-08T09:56:15.504Z,95558.34
2023-01-08T09:58:46.699Z,95552.50
2023-01-08T10:01:14.485Z,95547.03
2023-01-08T10:03:46.748Z,95548.69
2023-01-08T10:06:14.523Z,95542.22
2023-01-08T10:08:41.305Z,95535.56
2023-01-08T10:11:09.110Z,95531.06
2023-01-08T10:13:37.424Z,95531.25
2023-01-08T10:16:07.368Z,95533.91
2023-01-08T10:18:35.078Z,95527.69
2023-01-08T10:21:01.527Z,95522.41
2023-01-08T10:23:28.007Z,95527.28
2023-01-08T10:26:01.822Z,95528.97
2023-01-08T10:28:32.551Z,95518.66
2023-01-08T10:31:06.409Z,95519.28
2023-01-08T10:33:40.950Z,95519.88
2023-01-08T10:36:08.951Z,95509.56
2023-01-08T10:38:42.024Z,95507.34
2023-01-08T10:41:13.664Z,95499.03
2023-01-08T10:43:54.122Z,95512.41
2023-01-08T10:46:23.392Z,95510.22
2023-01-08T10:49:01.278Z,95501.88
2023-01-08T10:51:29.280Z,95490.38
2023-01-08T10:53:58.120Z,95493.84
2023-01-08T10:56:25.832Z,95497.06
2023-01-08T10:58:52.424Z,95490.63
2023-01-08T11:01:26.893Z,95491.03
2023-01-08T11:04:05.067Z,95489.41
2023-01-08T11:06:33.320Z,95487.38
2023-01-08T11:09:01.580Z,95483.38
2023-01-08T11:11:37.758Z,95481.78
2023-01-08T11:14:05.653Z,95485.00
2023-01-08T11:16:41.864Z,95478.13
2023-01-08T11:19:19.559Z,95474.09
2023-01-08T11:22:15.398Z,95468.41
2023-01-08T11:24:42.403Z,95471.47
2023-01-08T11:27:11.646Z,95463.16
2023-01-08T11:29:56.097Z,95470.47
2023-01-08T11:32:46.363Z,95446.56
2023-01-08T11:35:25.527Z,95460.34
2023-01-08T11:38:00.050Z,95442.13
2023-01-08T11:40:46.735Z,95448.41
2023-01-08T11:43:25.174Z,95441.75
2023-01-08T11:45:54.952Z,95445.78
2023-01-08T11:48:21.401Z,95439.50
2023-01-08T11:51:06.331Z,95442.31
2023-01-08T11:53:43.711Z,95437.69
2023-01-08T11:56:28.832Z,95438.69
2023-01-08T11:59:07.499Z,95428.16
2023-01-08T12:01:44.788Z,95421.25
2023-01-08T12:04:35.091Z,95419.84
2023-01-08T12:07:09.665Z,95417.22
2023-01-08T12:09:46.023Z,95425.31
2023-01-08T12:12:27.749Z,95421.06
2023-01-08T12:15:04.196Z,95419.03
2023-01-08T12:17:33.629Z,95421.88
2023-01-08T12:20:19.413Z,95413.38
2023-01-08T12:22:58.581Z,95409.09
2023-01-08T12:25:43.906Z,95417.03
2023-01-08T12:28:22.593Z,95404.84
2023-01-08T12:30:55.189Z,95393.13
2023-01-08T12:33:23.798Z,95409.13
2023-01-08T12:35:53.262Z,95395.94
2023-01-08T12:38:27.813Z,95407.69
2023-01-08T12:41:02.107Z,95395.13
2023-01-08T12:43:35.527Z,95390.88
2023-01-08T12:46:02.952Z,95386.19
2023-01-08T12:48:31.234Z,95387.84
2023-01-08T12:51:01.571Z,95378.91
2023-01-08T12:53:32.648Z,95370.38
2023-01-08T12:56:02.469Z,95384.56
2023-01-08T12:58:33.624Z,95377.69
2023-01-08T13:01:00.147Z,95374.44
2023-01-08T13:03:29.419Z,95384.78
2023-01-08T13:06:07.309Z,95373.03
2023-01-08T13:08:35.003Z,95380.53
2023-01-08T13:11:02.441Z,95372.00
2023-01-08T13:13:30.777Z,95374.84
2023-01-08T13:16:07.305Z,95372.81
2023-01-08T13:18:34.048Z,95361.03
2023-01-08T13:21:01.973Z,95367.34
2023-01-08T13:23:29.879Z,95367.34
2023-01-08T13:25:58.019Z,95368.16
2023-01-08T13:28:24.436Z,95359.22
2023-01-08T13:30:51.487Z,95353.53
2023-01-08T13:33:24.062Z,95360.06
2023-01-08T13:35:50.721Z,95356.19
2023-01-08T13:38:18.413Z,95359.84
2023-01-08T13:40:44.851Z,95345.22
2023-01-08T13:43:26.617Z,95346.25
2023-01-08T13:46:13.430Z,95344.81
2023-01-08T13:48:47.937Z,95351.28
2023-01-08T13:51:35.056Z,95344.41
2023-01-08T13:54:06.837Z,95341.78
2023-01-08T13:56:33.316Z,95344.00
2023-01-08T13:59:02.102Z,95339.13
2023-01-08T14:01:28.837Z,95342.38
2023-01-08T14:03:55.342Z,95345.00
2023-01-08T14:06:25.590Z,95343.19
2023-01-08T14:09:14.794Z,95344.44
2023-01-08T14:11:46.573Z,95352.53
2023-01-08T14:14:13.955Z,95361.22
2023-01-08T14:16:41.344Z,95336.31
2023-01-08T14:19:08.255Z,95339.16
2023-01-08T14:21:34.854Z,95342.00
2023-01-08T14:24:01.356Z,95354.56
2023-01-08T14:26:31.498Z,95345.81
2023-01-08T14:28:57.999Z,95334.66
2023-01-08T14:31:26.628Z,95346.44
2023-01-08T14:33:53.819Z,95346.44
2023-01-08T14:36:20.915Z,95341.16
2023-01-08T14:38:50.949Z,95335.09
2023-01-08T14:41:20.999Z,95351.13
2023-01-08T14:43:49.984Z,95350.91
2023-01-08T14:46:19.165Z,95356.59
2023-01-08T14:48:46.082Z,95350.50
2023-01-08T14:51:20.667Z,95339.16
2023-01-08T14:53:56.273Z,95343.22
2023-01-08T14:56:28.280Z,95341.00
2023-01-08T14:58:55.535Z,95341.19
2023-01-08T15:01:29.524Z,95338.75
2023-01-08T15:04:25.343Z,95338.75
2023-01-08T15:06:52.891Z,95335.91
2023-01-08T15:09:30.206Z,95329.63
2023-01-08T15:11:58.022Z,95327.41
2023-01-08T15:14:25.297Z,95325.38
2023-01-08T15:16:55.284Z,95320.31
2023-01-08T15:19:26.765Z,95322.53
2023-01-08T15:21:54.494Z,95319.09
2023-01-08T15:24:27.614Z,95319.72
2023-01-08T15:26:54.489Z,95311.19
2023-01-08T15:29:23.745Z,95317.06
2023-01-08T15:31:50.340Z,95314.81
2023-01-08T15:34:18.720Z,95320.50
2023-01-08T15:36:45.883Z,95322.94
2023-01-08T15:39:12.419Z,95309.94
2023-01-08T15:41:58.274Z,95308.34
2023-01-08T15:44:25.457Z,95302.44
2023-01-08T15:46:52.009Z,95303.88
2023-01-08T15:49:18.574Z,95295.94
2023-01-08T15:51:46.706Z,95302.63
2023-01-08T15:54:13.267Z,95305.06
2023-01-08T15:56:39.728Z,95303.88
2023-01-08T15:59:06.297Z,95304.66
2023-01-08T16:01:34.798Z,95302.03
2023-01-08T16:04:01.414Z,95305.88
2023-01-08T16:06:27.907Z,95303.66
2023-01-08T16:08:57.699Z,95307.50
2023-01-08T16:11:24.148Z,95299.19
2023-01-08T16:13:50.588Z,95300.66
2023-01-08T16:16:17.419Z,95301.84
2023-01-08T16:18:44.206Z,95294.94
2023-01-08T16:21:11.071Z,95295.56
2023-01-08T16:23:38.182Z,95300.63
2023-01-08T16:26:05.562Z,95293.72
2023-01-08T16:28:31.992Z,95295.34
2023-01-08T16:30:58.466Z,95290.91
2023-01-08T16:33:24.896Z,95296.75
2023-01-08T16:35:58.035Z,95291.72
2023-01-08T16:38:27.484Z,95282.78
2023-01-08T16:40:56.689Z,95289.66
2023-01-08T16:43:27.425Z,95282.78
2023-01-08T16:45:55.188Z,95282.38
2023-01-08T16:48:22.739Z,95278.91
2023-01-08T16:50:49.523Z,95294.13
2023-01-08T16:53:21.616Z,95286.41
2023-01-08T16:55:48.070Z,95279.72
2023-01-08T16:58:14.650Z,95278.72
2023-01-08T17:00:41.163Z,95279.91
2023-01-08T17:03:07.651Z,95277.06
2023-01-08T17:05:36.083Z,95279.91
2023-01-08T17:08:02.500Z,95274.44
2023-01-08T17:10:28.930Z,95271.81
2023-01-08T17:12:55.369Z,95266.53
2023-01-08T17:15:21.807Z,95268.75
2023-01-08T17:17:48.277Z,95265.31
2023-01-08T17:20:15.092Z,95254.78
2023-01-08T17:22:41.513Z,95242.78
2023-01-08T17:25:08.215Z,95246.22
2023-01-08T17:27:35.066Z,95239.75
2023-01-08T17:30:01.597Z,95238.94
2023-01-08T17:32:29.386Z,95240.94
2023-01-08T17:34:55.943Z,95237.69
2023-01-08T17:37:22.459Z,95252.72
2023-01-08T17:39:48.935Z,95248.44
2023-01-08T17:42:24.443Z,95244.81
2023-01-08T17:44:51.565Z,95246.22
2023-01-08T17:47:19.780Z,95238.94
2023-01-08T17:49:53.240Z,95245.00
2023-01-08T17:52:20.293Z,95249.06
2023-01-08T17:54:52.932Z,95243.41
2023-01-08T17:57:20.946Z,95247.88
2023-01-08T17:59:48.410Z,95245.03
2023-01-08T18:02:16.179Z,95243.44
2023-01-08T18:04:43.974Z,95246.47
2023-01-08T18:07:10.621Z,95258.41
2023-01-08T18:09:37.209Z,95255.97
2023-01-08T18:12:03.769Z,95254.97
2023-01-08T18:14:30.214Z,95252.34
2023-01-08T18:16:56.768Z,95253.53
2023-01-08T18:19:23.284Z,95254.34
2023-01-08T18:21:49.731Z,95250.91
2023-01-08T18:24:16.247Z,95247.88
2023-01-08T18:26:42.985Z,95242.81
2023-01-08T18:29:09.438Z,95238.56
2023-01-08T18:31:35.942Z,95228.81
2023-01-08T18:34:03.821Z,95236.97
2023-01-08T18:36:30.415Z,95236.53
2023-01-08T18:38:57.495Z,95238.75
2023-01-08T18:41:42.317Z,95241.41
2023-01-08T18:44:10.044Z,95230.06
2023-01-08T18:46:37.093Z,95238.16
2023-01-08T18:49:03.987Z,95222.16
2023-01-08T18:51:30.432Z,95227.22
2023-01-08T18:53:56.949Z,95224.19
2023-01-08T18:56:31.290Z,95221.16
2023-01-08T18:58:57.776Z,95226.41
2023-01-08T19:01:24.839Z,95236.13
2023-01-08T19:03:51.423Z,95230.28
2023-01-08T19:06:18.216Z,95211.84
2023-01-08T19:08:45.009Z,95209.00
2023-01-08T19:11:11.835Z,95216.50
2023-01-08T19:13:38.673Z,95214.09
2023-01-08T19:16:05.926Z,95205.97
2023-01-08T19:18:32.664Z,95205.16
2023-01-08T19:21:00.111Z,95204.13
2023-01-08T19:23:26.617Z,95207.97
2023-01-08T19:25:53.201Z,95210.41
2023-01-08T19:28:19.682Z,95206.16
2023-01-08T19:30:53.525Z,95201.66
2023-01-08T19:33:19.960Z,95195.59
2023-01-08T19:35:46.399Z,95210.97
2023-01-08T19:38:12.927Z,95207.91
2023-01-08T19:40:39.492Z,95200.00
2023-01-08T19:43:24.740Z,95202.44
2023-01-08T19:45:51.282Z,95198.59
2023-01-08T19:48:18.071Z,95202.25
2023-01-08T19:50:46.909Z,95196.16
2023-01-08T19:53:14.569Z,95206.09
2023-01-08T19:55:41.281Z,95206.31
2023-01-08T19:58:07.929Z,95203.03
2023-01-08T20:00:37.647Z,95193.94
2023-01-08T20:03:04.667Z,95189.28
2023-01-08T20:05:31.519Z,95187.84
2023-01-08T20:07:57.969Z,95183.00
2023-01-08T20:10:24.595Z,95184.59
2023-01-08T20:12:51.023Z,95184.59
2023-01-08T20:15:19.251Z,95176.09
2023-01-08T20:17:45.764Z,95185.44
2023-01-08T20:20:12.523Z,95175.69
2023-01-08T20:22:39.001Z,95167.19
2023-01-08T20:25:06.203Z,95170.81
2023-01-08T20:27:32.698Z,95173.66
2023-01-08T20:29:59.200Z,95169.81
2023-01-08T20:32:25.643Z,95161.91
2023-01-08T20:34:52.123Z,95157.44
2023-01-08T20:37:18.548Z,95163.53
2023-01-08T20:39:46.123Z,95167.38
2023-01-08T20:42:17.705Z,95151.75
2023-01-08T20:44:53.910Z,95145.06
2023-01-08T20:47:20.340Z,95151.75
2023-01-08T20:49:46.775Z,95163.47
2023-01-08T20:52:14.808Z,95146.88
2023-01-08T20:54:41.250Z,95142.88
2023-01-08T20:57:07.792Z,95144.69
2023-01-08T20:59:34.291Z,95141.03
2023-01-08T21:02:01.309Z,95132.38
2023-01-08T21:04:27.881Z,95127.09
2023-01-08T21:06:54.395Z,95124.28
2023-01-08T21:09:20.953Z,95127.09
2023-01-08T21:11:47.428Z,95135.19
2023-01-08T21:14:13.884Z,95125.22
2023-01-08T21:16:40.678Z,95119.94
2023-01-08T21:19:10.271Z,95122.00
2023-01-08T21:21:40.015Z,95117.13
2023-01-08T21:24:09.027Z,95112.06
2023-01-08T21:26:36.922Z,95112.69
2023-01-08T21:29:04.264Z,95099.34
2023-01-08T21:31:30.742Z,95101.19
2023-01-08T21:33:58.404Z,95094.72
2023-01-08T21:36:26.303Z,95093.13
2023-01-08T21:38:53.158Z,95081.16
2023-01-08T21:41:39.586Z,95080.34
2023-01-08T21:44:28.845Z,95071.00
2023-01-08T21:46:55.303Z,95064.75
2023-01-08T21:49:21.747Z,95072.84
2023-01-08T21:52:06.725Z,95072.03
2023-01-08T21:54:33.153Z,95062.31
2023-01-08T21:56:59.601Z,95063.09
2023-01-08T21:59:26.046Z,95050.34
2023-01-08T22:01:52.519Z,95051.56
2023-01-08T22:04:19.070Z,95061.50
2023-01-08T22:06:45.507Z,95062.72
2023-01-08T22:09:11.960Z,95063.53
2023-01-08T22:11:38.589Z,95054.63
2023-01-08T22:14:05.047Z,95037.78
2023-01-08T22:16:31.569Z,95049.16
2023-01-08T22:18:58.085Z,95039.22
2023-01-08T22:21:24.564Z,95025.81
2023-01-08T22:23:51.171Z,95026.84
2023-01-08T22:26:20.095Z,95017.13
2023-01-08T22:28:46.722Z,95009.22
2023-01-08T22:31:14.029Z,95005.13
2023-01-08T22:33:40.475Z,95019.34
2023-01-08T22:36:08.736Z,95022.56
2023-01-08T22:38:35.343Z,95023.38
2023-01-08T22:41:02.144Z,95035.06
2023-01-08T22:43:28.783Z,95024.91
2023-01-08T22:45:56.336Z,95008.31
2023-01-08T22:48:23.344Z,95006.69
2023-01-08T22:50:50.019Z,95009.94
2023-01-08T22:53:16.470Z,94988.84
2023-01-08T22:55:43.720Z,94993.69
2023-01-08T22:58:10.169Z,94991.22
2023-01-08T23:00:38.235Z,94979.84
2023-01-08T23:03:06.018Z,94986.94
2023-01-08T23:05:33.076Z,94979.03
2023-01-08T23:07:59.702Z,94973.75
2023-01-08T23:10:26.589Z,94971.13
2023-01-08T23:12:53.079Z,94964.78
2023-01-08T23:15:20.015Z,94978.53
2023-01-08T23:17:52.230Z,94973.09
2023-01-08T23:20:19.699Z,94969.41
2023-01-08T23:22:47.096Z,94972.88
2023-01-08T23:25:13.840Z,94956.22
2023-01-08T23:27:40.514Z,94942.81
2023-01-08T23:30:07.268Z,94936.97
2023-01-08T23:32:33.702Z,94942.81
2023-01-08T23:35:01.132Z,94947.66
2023-01-08T23:37:27.584Z,94947.66
2023-01-08T23:39:54.033Z,94942.81
2023-01-08T23:42:20.491Z,94944.88
2023-01-08T23:44:48.847Z,94931.69
2023-01-08T23:47:15.294Z,94930.31
2023-01-08T23:49:41.798Z,94935.81
2023-01-08T23:52:08.233Z,94929.16
2023-01-08T23:54:35.960Z,94927.53
2023-01-08T23:57:02.986Z,94923.44
2023-01-08T23:59:29.508Z,94928.94
